sensor_id;sensor_type;location;lat;lon;timestamp;P1;durP1;ratioP1;P2;durP2;ratioP2
53267;SDS011;39156;51.176;6.738;2022-10-31T00:00:17;36.78;;;34.33;;
53267;SDS011;39156;51.176;6.738;2022-10-31T00:02:43;37.40;;;34.88;;
53267;SDS011;39156;51.176;6.738;2022-10-31T00:05:09;37.88;;;35.08;;
53267;SDS011;39156;51.176;6.738;2022-10-31T00:07:34;38.15;;;35.85;;
53267;SDS011;39156;51.176;6.738;2022-10-31T00:10:00;36.88;;;34.50;;
53267;SDS011;39156;51.176;6.738;2022-10-31T00:12:26;38.22;;;35.47;;
53267;SDS011;39156;51.176;6.738;2022-10-31T00:14:52;38.10;;;35.37;;
53267;SDS011;39156;51.176;6.738;2022-10-31T00:17:17;34.95;;;32.55;;
53267;SDS011;39156;51.176;6.738;2022-10-31T00:19:43;37.67;;;34.92;;
53267;SDS011;39156;51.176;6.738;2022-10-31T00:22:09;37.13;;;34.30;;
53267;SDS011;39156;51.176;6.738;2022-10-31T00:24:35;37.22;;;34.83;;
53267;SDS011;39156;51.176;6.738;2022-10-31T00:27:00;37.80;;;35.15;;
53267;SDS011;39156;51.176;6.738;2022-10-31T00:29:26;37.47;;;35.08;;
53267;SDS011;39156;51.176;6.738;2022-10-31T00:31:52;37.97;;;35.40;;
53267;SDS011;39156;51.176;6.738;2022-10-31T00:34:18;37.35;;;34.63;;
53267;SDS011;39156;51.176;6.738;2022-10-31T00:36:43;36.65;;;34.00;;
53267;SDS011;39156;51.176;6.738;2022-10-31T00:39:09;36.33;;;33.90;;
53267;SDS011;39156;51.176;6.738;2022-10-31T00:41:35;37.72;;;35.42;;
53267;SDS011;39156;51.176;6.738;2022-10-31T00:44:00;35.97;;;33.78;;
53267;SDS011;39156;51.176;6.738;2022-10-31T00:46:26;35.38;;;33.17;;
53267;SDS011;39156;51.176;6.738;2022-10-31T00:48:52;36.97;;;34.33;;
53267;SDS011;39156;51.176;6.738;2022-10-31T00:51:17;35.92;;;33.55;;
53267;SDS011;39156;51.176;6.738;2022-10-31T00:53:43;37.50;;;34.95;;
53267;SDS011;39156;51.176;6.738;2022-10-31T00:56:09;38.33;;;35.80;;
53267;SDS011;39156;51.176;6.738;2022-10-31T00:58:35;37.60;;;35.05;;
53267;SDS011;39156;51.176;6.738;2022-10-31T01:01:00;39.25;;;36.42;;
53267;SDS011;39156;51.176;6.738;2022-10-31T01:03:28;37.22;;;34.55;;
53267;SDS011;39156;51.176;6.738;2022-10-31T01:05:59;39.05;;;35.38;;
53267;SDS011;39156;51.176;6.738;2022-10-31T01:08:32;38.47;;;35.78;;
53267;SDS011;39156;51.176;6.738;2022-10-31T01:11:04;36.60;;;34.15;;
53267;SDS011;39156;51.176;6.738;2022-10-31T01:13:34;36.58;;;34.28;;
53267;SDS011;39156;51.176;6.738;2022-10-31T01:16:01;39.47;;;36.38;;
53267;SDS011;39156;51.176;6.738;2022-10-31T01:18:28;38.80;;;36.00;;
53267;SDS011;39156;51.176;6.738;2022-10-31T01:21:01;38.03;;;35.55;;
53267;SDS011;39156;51.176;6.738;2022-10-31T01:23:31;37.15;;;34.90;;
53267;SDS011;39156;51.176;6.738;2022-10-31T01:28:25;36.95;;;34.28;;
53267;SDS011;39156;51.176;6.738;2022-10-31T01:30:51;39.50;;;36.35;;
53267;SDS011;39156;51.176;6.738;2022-10-31T01:33:17;40.93;;;37.83;;
53267;SDS011;39156;51.176;6.738;2022-10-31T01:35:43;37.65;;;35.05;;
53267;SDS011;39156;51.176;6.738;2022-10-31T01:38:09;38.75;;;35.97;;
53267;SDS011;39156;51.176;6.738;2022-10-31T01:40:34;39.45;;;36.53;;
53267;SDS011;39156;51.176;6.738;2022-10-31T01:43:00;37.50;;;34.80;;
53267;SDS011;39156;51.176;6.738;2022-10-31T01:45:25;38.35;;;35.53;;
53267;SDS011;39156;51.176;6.738;2022-10-31T01:47:51;37.45;;;34.70;;
53267;SDS011;39156;51.176;6.738;2022-10-31T01:50:24;37.90;;;35.20;;
53267;SDS011;39156;51.176;6.738;2022-10-31T01:52:57;38.28;;;35.63;;
53267;SDS011;39156;51.176;6.738;2022-10-31T01:55:26;39.25;;;36.22;;
53267;SDS011;39156;51.176;6.738;2022-10-31T01:58:04;38.08;;;35.38;;
53267;SDS011;39156;51.176;6.738;2022-10-31T02:00:37;39.13;;;36.55;;
53267;SDS011;39156;51.176;6.738;2022-10-31T02:03:04;38.92;;;36.20;;
53267;SDS011;39156;51.176;6.738;2022-10-31T02:05:30;38.03;;;35.25;;
53267;SDS011;39156;51.176;6.738;2022-10-31T02:08:01;37.53;;;35.22;;
53267;SDS011;39156;51.176;6.738;2022-10-31T02:10:32;38.53;;;35.70;;
53267;SDS011;39156;51.176;6.738;2022-10-31T02:13:01;36.25;;;33.95;;
53267;SDS011;39156;51.176;6.738;2022-10-31T02:15:31;39.58;;;36.67;;
53267;SDS011;39156;51.176;6.738;2022-10-31T02:17:58;39.22;;;36.42;;
53267;SDS011;39156;51.176;6.738;2022-10-31T02:20:25;38.95;;;36.53;;
53267;SDS011;39156;51.176;6.738;2022-10-31T02:23:08;36.38;;;33.80;;
53267;SDS011;39156;51.176;6.738;2022-10-31T02:32:09;36.55;;;34.10;;
53267;SDS011;39156;51.176;6.738;2022-10-31T02:38:10;37.30;;;34.90;;
53267;SDS011;39156;51.176;6.738;2022-10-31T02:40:35;37.78;;;35.38;;
53267;SDS011;39156;51.176;6.738;2022-10-31T02:44:08;35.78;;;33.42;;
53267;SDS011;39156;51.176;6.738;2022-10-31T02:46:34;37.20;;;34.40;;
53267;SDS011;39156;51.176;6.738;2022-10-31T02:49:15;38.13;;;35.42;;
53267;SDS011;39156;51.176;6.738;2022-10-31T02:51:49;36.65;;;34.13;;
53267;SDS011;39156;51.176;6.738;2022-10-31T02:54:17;37.20;;;34.40;;
53267;SDS011;39156;51.176;6.738;2022-10-31T02:56:46;36.47;;;34.05;;
53267;SDS011;39156;51.176;6.738;2022-10-31T02:59:14;37.72;;;35.17;;
53267;SDS011;39156;51.176;6.738;2022-10-31T03:02:05;37.17;;;34.63;;
53267;SDS011;39156;51.176;6.738;2022-10-31T03:12:39;37.47;;;34.75;;
53267;SDS011;39156;51.176;6.738;2022-10-31T03:15:23;37.05;;;34.40;;
53267;SDS011;39156;51.176;6.738;2022-10-31T03:18:00;37.95;;;35.08;;
53267;SDS011;39156;51.176;6.738;2022-10-31T03:20:48;37.95;;;35.10;;
53267;SDS011;39156;51.176;6.738;2022-10-31T03:23:20;36.28;;;33.40;;
53267;SDS011;39156;51.176;6.738;2022-10-31T03:25:47;37.47;;;34.97;;
53267;SDS011;39156;51.176;6.738;2022-10-31T03:28:15;34.50;;;32.30;;
53267;SDS011;39156;51.176;6.738;2022-10-31T03:30:44;36.42;;;33.92;;
53267;SDS011;39156;51.176;6.738;2022-10-31T03:33:13;37.85;;;35.28;;
53267;SDS011;39156;51.176;6.738;2022-10-31T03:35:44;37.50;;;34.80;;
53267;SDS011;39156;51.176;6.738;2022-10-31T03:38:13;37.03;;;34.60;;
53267;SDS011;39156;51.176;6.738;2022-10-31T03:40:40;35.83;;;33.42;;
53267;SDS011;39156;51.176;6.738;2022-10-31T03:43:10;35.95;;;33.70;;
53267;SDS011;39156;51.176;6.738;2022-10-31T03:45:41;35.85;;;33.35;;
53267;SDS011;39156;51.176;6.738;2022-10-31T03:48:10;37.85;;;35.08;;
53267;SDS011;39156;51.176;6.738;2022-10-31T03:50:43;38.80;;;35.90;;
53267;SDS011;39156;51.176;6.738;2022-10-31T03:56:06;38.97;;;36.20;;
53267;SDS011;39156;51.176;6.738;2022-10-31T03:58:54;38.67;;;36.03;;
53267;SDS011;39156;51.176;6.738;2022-10-31T04:01:30;38.38;;;35.30;;
53267;SDS011;39156;51.176;6.738;2022-10-31T04:03:59;38.15;;;35.22;;
53267;SDS011;39156;51.176;6.738;2022-10-31T04:06:26;37.70;;;35.17;;
53267;SDS011;39156;51.176;6.738;2022-10-31T04:08:56;36.40;;;34.10;;
53267;SDS011;39156;51.176;6.738;2022-10-31T04:11:29;40.70;;;37.88;;
53267;SDS011;39156;51.176;6.738;2022-10-31T04:14:00;37.15;;;34.42;;
53267;SDS011;39156;51.176;6.738;2022-10-31T04:16:29;36.55;;;33.83;;
53267;SDS011;39156;51.176;6.738;2022-10-31T04:18:55;38.27;;;35.67;;
53267;SDS011;39156;51.176;6.738;2022-10-31T04:21:26;38.33;;;35.70;;
53267;SDS011;39156;51.176;6.738;2022-10-31T04:23:55;36.30;;;33.83;;
53267;SDS011;39156;51.176;6.738;2022-10-31T04:26:21;41.53;;;38.27;;
53267;SDS011;39156;51.176;6.738;2022-10-31T04:28:47;39.38;;;36.38;;
53267;SDS011;39156;51.176;6.738;2022-10-31T04:31:13;37.13;;;34.67;;
53267;SDS011;39156;51.176;6.738;2022-10-31T04:33:39;35.67;;;33.20;;
53267;SDS011;39156;51.176;6.738;2022-10-31T04:36:05;37.08;;;34.67;;
53267;SDS011;39156;51.176;6.738;2022-10-31T04:38:31;37.58;;;34.78;;
53267;SDS011;39156;51.176;6.738;2022-10-31T04:40:56;40.33;;;37.42;;
53267;SDS011;39156;51.176;6.738;2022-10-31T04:43:22;38.65;;;35.75;;
53267;SDS011;39156;51.176;6.738;2022-10-31T04:45:48;36.75;;;34.15;;
53267;SDS011;39156;51.176;6.738;2022-10-31T04:48:14;37.80;;;35.20;;
53267;SDS011;39156;51.176;6.738;2022-10-31T04:50:39;37.05;;;34.55;;
53267;SDS011;39156;51.176;6.738;2022-10-31T04:53:05;37.67;;;35.22;;
53267;SDS011;39156;51.176;6.738;2022-10-31T04:55:31;36.63;;;34.22;;
53267;SDS011;39156;51.176;6.738;2022-10-31T04:57:56;38.88;;;36.13;;
53267;SDS011;39156;51.176;6.738;2022-10-31T05:00:22;39.35;;;36.45;;
53267;SDS011;39156;51.176;6.738;2022-10-31T05:02:53;36.55;;;34.00;;
53267;SDS011;39156;51.176;6.738;2022-10-31T05:05:22;36.38;;;33.40;;
53267;SDS011;39156;51.176;6.738;2022-10-31T05:07:54;37.38;;;34.97;;
53267;SDS011;39156;51.176;6.738;2022-10-31T05:10:22;37.83;;;35.23;;
53267;SDS011;39156;51.176;6.738;2022-10-31T05:12:51;36.65;;;33.88;;
53267;SDS011;39156;51.176;6.738;2022-10-31T05:15:20;37.33;;;34.85;;
53267;SDS011;39156;51.176;6.738;2022-10-31T05:17:48;38.20;;;35.30;;
53267;SDS011;39156;51.176;6.738;2022-10-31T05:20:14;37.25;;;34.55;;
53267;SDS011;39156;51.176;6.738;2022-10-31T05:22:45;39.42;;;36.63;;
53267;SDS011;39156;51.176;6.738;2022-10-31T05:25:16;37.50;;;34.95;;
53267;SDS011;39156;51.176;6.738;2022-10-31T05:27:44;37.35;;;34.75;;
53267;SDS011;39156;51.176;6.738;2022-10-31T05:30:12;38.50;;;35.85;;
53267;SDS011;39156;51.176;6.738;2022-10-31T05:32:42;37.67;;;35.30;;
53267;SDS011;39156;51.176;6.738;2022-10-31T05:35:10;38.70;;;35.95;;
53267;SDS011;39156;51.176;6.738;2022-10-31T05:37:42;37.70;;;35.10;;
53267;SDS011;39156;51.176;6.738;2022-10-31T05:40:09;37.97;;;35.27;;
53267;SDS011;39156;51.176;6.738;2022-10-31T05:42:38;38.47;;;35.95;;
53267;SDS011;39156;51.176;6.738;2022-10-31T05:45:05;38.72;;;35.83;;
53267;SDS011;39156;51.176;6.738;2022-10-31T05:47:37;37.33;;;34.85;;
53267;SDS011;39156;51.176;6.738;2022-10-31T05:50:03;38.17;;;35.28;;
53267;SDS011;39156;51.176;6.738;2022-10-31T05:52:30;36.97;;;34.28;;
53267;SDS011;39156;51.176;6.738;2022-10-31T05:54:56;37.42;;;34.75;;
53267;SDS011;39156;51.176;6.738;2022-10-31T05:57:22;38.38;;;35.60;;
53267;SDS011;39156;51.176;6.738;2022-10-31T05:59:48;36.78;;;34.42;;
53267;SDS011;39156;51.176;6.738;2022-10-31T06:02:13;40.25;;;37.80;;
53267;SDS011;39156;51.176;6.738;2022-10-31T06:04:39;37.55;;;34.65;;
53267;SDS011;39156;51.176;6.738;2022-10-31T06:07:04;38.00;;;35.28;;
53267;SDS011;39156;51.176;6.738;2022-10-31T06:09:30;39.05;;;36.45;;
53267;SDS011;39156;51.176;6.738;2022-10-31T06:11:56;38.50;;;35.45;;
53267;SDS011;39156;51.176;6.738;2022-10-31T06:14:21;42.42;;;39.05;;
53267;SDS011;39156;51.176;6.738;2022-10-31T06:16:47;37.83;;;35.38;;
53267;SDS011;39156;51.176;6.738;2022-10-31T06:19:13;39.55;;;36.40;;
53267;SDS011;39156;51.176;6.738;2022-10-31T06:21:38;38.85;;;36.22;;
53267;SDS011;39156;51.176;6.738;2022-10-31T06:24:04;41.15;;;38.50;;
53267;SDS011;39156;51.176;6.738;2022-10-31T06:26:30;40.78;;;37.72;;
53267;SDS011;39156;51.176;6.738;2022-10-31T06:28:56;38.60;;;35.90;;
53267;SDS011;39156;51.176;6.738;2022-10-31T06:31:21;38.67;;;35.97;;
53267;SDS011;39156;51.176;6.738;2022-10-31T06:33:47;37.90;;;35.42;;
53267;SDS011;39156;51.176;6.738;2022-10-31T06:36:13;39.17;;;36.45;;
53267;SDS011;39156;51.176;6.738;2022-10-31T06:38:39;37.60;;;35.10;;
53267;SDS011;39156;51.176;6.738;2022-10-31T06:41:05;40.45;;;37.70;;
53267;SDS011;39156;51.176;6.738;2022-10-31T06:43:31;39.93;;;36.90;;
53267;SDS011;39156;51.176;6.738;2022-10-31T06:45:57;38.40;;;35.53;;
53267;SDS011;39156;51.176;6.738;2022-10-31T06:48:28;38.92;;;35.95;;
53267;SDS011;39156;51.176;6.738;2022-10-31T06:50:56;39.95;;;37.08;;
53267;SDS011;39156;51.176;6.738;2022-10-31T06:53:24;39.00;;;36.40;;
53267;SDS011;39156;51.176;6.738;2022-10-31T06:55:50;39.58;;;37.08;;
53267;SDS011;39156;51.176;6.738;2022-10-31T06:58:16;38.53;;;35.88;;
53267;SDS011;39156;51.176;6.738;2022-10-31T07:00:42;38.10;;;35.20;;
53267;SDS011;39156;51.176;6.738;2022-10-31T07:03:11;38.83;;;35.95;;
53267;SDS011;39156;51.176;6.738;2022-10-31T07:05:40;39.28;;;36.58;;
53267;SDS011;39156;51.176;6.738;2022-10-31T07:08:07;40.25;;;37.45;;
53267;SDS011;39156;51.176;6.738;2022-10-31T07:10:38;37.53;;;34.85;;
53267;SDS011;39156;51.176;6.738;2022-10-31T07:13:07;40.67;;;37.70;;
53267;SDS011;39156;51.176;6.738;2022-10-31T07:15:39;40.75;;;37.50;;
53267;SDS011;39156;51.176;6.738;2022-10-31T07:18:07;40.40;;;36.55;;
53267;SDS011;39156;51.176;6.738;2022-10-31T07:20:36;37.70;;;34.72;;
53267;SDS011;39156;51.176;6.738;2022-10-31T07:23:02;40.38;;;37.50;;
53267;SDS011;39156;51.176;6.738;2022-10-31T07:25:29;40.33;;;37.63;;
53267;SDS011;39156;51.176;6.738;2022-10-31T07:27:54;40.90;;;37.95;;
53267;SDS011;39156;51.176;6.738;2022-10-31T07:30:21;38.75;;;35.47;;
53267;SDS011;39156;51.176;6.738;2022-10-31T07:32:47;37.60;;;34.88;;
53267;SDS011;39156;51.176;6.738;2022-10-31T07:35:18;38.83;;;35.67;;
53267;SDS011;39156;51.176;6.738;2022-10-31T07:37:48;38.42;;;35.60;;
53267;SDS011;39156;51.176;6.738;2022-10-31T07:40:14;38.05;;;35.00;;
53267;SDS011;39156;51.176;6.738;2022-10-31T07:42:42;37.42;;;34.80;;
53267;SDS011;39156;51.176;6.738;2022-10-31T07:45:13;39.20;;;35.85;;
53267;SDS011;39156;51.176;6.738;2022-10-31T07:47:42;37.55;;;34.70;;
53267;SDS011;39156;51.176;6.738;2022-10-31T07:50:11;38.75;;;36.05;;
53267;SDS011;39156;51.176;6.738;2022-10-31T07:52:40;39.30;;;36.30;;
53267;SDS011;39156;51.176;6.738;2022-10-31T07:55:06;39.60;;;36.00;;
53267;SDS011;39156;51.176;6.738;2022-10-31T07:59:58;40.60;;;37.33;;
53267;SDS011;39156;51.176;6.738;2022-10-31T08:02:24;39.33;;;36.47;;
53267;SDS011;39156;51.176;6.738;2022-10-31T08:04:50;41.17;;;37.72;;
53267;SDS011;39156;51.176;6.738;2022-10-31T08:07:16;39.38;;;36.28;;
53267;SDS011;39156;51.176;6.738;2022-10-31T08:09:42;38.78;;;35.85;;
53267;SDS011;39156;51.176;6.738;2022-10-31T08:12:07;41.23;;;37.73;;
53267;SDS011;39156;51.176;6.738;2022-10-31T08:14:33;38.20;;;35.40;;
53267;SDS011;39156;51.176;6.738;2022-10-31T08:16:59;39.78;;;37.03;;
53267;SDS011;39156;51.176;6.738;2022-10-31T08:19:25;41.00;;;37.70;;
53267;SDS011;39156;51.176;6.738;2022-10-31T08:21:51;36.70;;;33.83;;
53267;SDS011;39156;51.176;6.738;2022-10-31T08:24:19;37.90;;;34.88;;
53267;SDS011;39156;51.176;6.738;2022-10-31T08:26:48;37.35;;;34.58;;
53267;SDS011;39156;51.176;6.738;2022-10-31T08:29:14;36.80;;;34.50;;
53267;SDS011;39156;51.176;6.738;2022-10-31T08:31:40;37.28;;;34.78;;
53267;SDS011;39156;51.176;6.738;2022-10-31T08:34:07;36.15;;;33.55;;
53267;SDS011;39156;51.176;6.738;2022-10-31T08:36:33;37.00;;;33.67;;
53267;SDS011;39156;51.176;6.738;2022-10-31T08:38:59;35.00;;;32.47;;
53267;SDS011;39156;51.176;6.738;2022-10-31T08:41:25;38.42;;;35.50;;
53267;SDS011;39156;51.176;6.738;2022-10-31T08:43:50;37.23;;;34.73;;
53267;SDS011;39156;51.176;6.738;2022-10-31T08:46:16;38.03;;;35.33;;
53267;SDS011;39156;51.176;6.738;2022-10-31T08:48:43;37.93;;;35.13;;
53267;SDS011;39156;51.176;6.738;2022-10-31T08:51:09;36.67;;;33.92;;
53267;SDS011;39156;51.176;6.738;2022-10-31T08:53:36;35.95;;;33.45;;
53267;SDS011;39156;51.176;6.738;2022-10-31T08:56:02;36.17;;;33.17;;
53267;SDS011;39156;51.176;6.738;2022-10-31T08:58:28;35.83;;;33.10;;
53267;SDS011;39156;51.176;6.738;2022-10-31T09:00:54;38.40;;;35.60;;
53267;SDS011;39156;51.176;6.738;2022-10-31T09:03:22;38.50;;;35.80;;
53267;SDS011;39156;51.176;6.738;2022-10-31T09:05:50;37.28;;;34.47;;
53267;SDS011;39156;51.176;6.738;2022-10-31T09:08:20;38.10;;;35.50;;
53267;SDS011;39156;51.176;6.738;2022-10-31T09:10:45;34.90;;;32.10;;
53267;SDS011;39156;51.176;6.738;2022-10-31T09:13:12;37.73;;;34.57;;
53267;SDS011;39156;51.176;6.738;2022-10-31T09:15:41;36.58;;;33.47;;
53267;SDS011;39156;51.176;6.738;2022-10-31T09:18:10;37.63;;;34.38;;
53267;SDS011;39156;51.176;6.738;2022-10-31T09:20:38;34.58;;;32.20;;
53267;SDS011;39156;51.176;6.738;2022-10-31T09:23:09;36.15;;;33.55;;
53267;SDS011;39156;51.176;6.738;2022-10-31T09:25:37;37.90;;;35.20;;
53267;SDS011;39156;51.176;6.738;2022-10-31T09:28:05;37.05;;;34.40;;
53267;SDS011;39156;51.176;6.738;2022-10-31T09:30:33;37.22;;;34.72;;
53267;SDS011;39156;51.176;6.738;2022-10-31T09:33:00;36.42;;;33.60;;
53267;SDS011;39156;51.176;6.738;2022-10-31T09:35:31;36.20;;;33.40;;
53267;SDS011;39156;51.176;6.738;2022-10-31T09:37:58;35.08;;;32.72;;
53267;SDS011;39156;51.176;6.738;2022-10-31T09:40:34;37.42;;;34.85;;
53267;SDS011;39156;51.176;6.738;2022-10-31T09:43:18;37.83;;;35.22;;
53267;SDS011;39156;51.176;6.738;2022-10-31T09:46:29;36.63;;;34.00;;
53267;SDS011;39156;51.176;6.738;2022-10-31T09:52:17;36.45;;;34.03;;
53267;SDS011;39156;51.176;6.738;2022-10-31T09:54:54;35.65;;;32.75;;
53267;SDS011;39156;51.176;6.738;2022-10-31T09:57:38;36.35;;;33.20;;
53267;SDS011;39156;51.176;6.738;2022-10-31T10:00:06;37.58;;;34.53;;
53267;SDS011;39156;51.176;6.738;2022-10-31T10:02:51;35.85;;;33.13;;
53267;SDS011;39156;51.176;6.738;2022-10-31T10:05:28;36.45;;;33.88;;
53267;SDS011;39156;51.176;6.738;2022-10-31T10:08:15;36.67;;;33.88;;
53267;SDS011;39156;51.176;6.738;2022-10-31T10:16:32;36.67;;;34.10;;
53267;SDS011;39156;51.176;6.738;2022-10-31T10:33:29;38.55;;;35.25;;
53267;SDS011;39156;51.176;6.738;2022-10-31T10:36:15;37.38;;;34.72;;
53267;SDS011;39156;51.176;6.738;2022-10-31T10:38:58;36.75;;;33.85;;
53267;SDS011;39156;51.176;6.738;2022-10-31T10:41:36;38.15;;;35.00;;
53267;SDS011;39156;51.176;6.738;2022-10-31T10:44:08;38.13;;;35.42;;
53267;SDS011;39156;51.176;6.738;2022-10-31T10:46:40;40.47;;;37.40;;
53267;SDS011;39156;51.176;6.738;2022-10-31T10:49:32;40.33;;;37.13;;
53267;SDS011;39156;51.176;6.738;2022-10-31T10:55:02;36.83;;;33.72;;
53267;SDS011;39156;51.176;6.738;2022-10-31T11:02:51;35.35;;;32.78;;
53267;SDS011;39156;51.176;6.738;2022-10-31T11:06:03;37.22;;;34.53;;
53267;SDS011;39156;51.176;6.738;2022-10-31T11:08:29;36.30;;;33.40;;
53267;SDS011;39156;51.176;6.738;2022-10-31T11:13:27;35.95;;;33.25;;
53267;SDS011;39156;51.176;6.738;2022-10-31T11:16:07;36.83;;;34.08;;
53267;SDS011;39156;51.176;6.738;2022-10-31T11:18:37;36.92;;;33.95;;
53267;SDS011;39156;51.176;6.738;2022-10-31T11:21:17;37.38;;;34.28;;
53267;SDS011;39156;51.176;6.738;2022-10-31T11:24:11;35.15;;;32.55;;
53267;SDS011;39156;51.176;6.738;2022-10-31T11:26:43;34.60;;;31.98;;
53267;SDS011;39156;51.176;6.738;2022-10-31T11:29:13;37.30;;;34.40;;
53267;SDS011;39156;51.176;6.738;2022-10-31T11:34:30;34.15;;;31.73;;
53267;SDS011;39156;51.176;6.738;2022-10-31T11:37:08;34.80;;;31.90;;
53267;SDS011;39156;51.176;6.738;2022-10-31T11:39:43;34.00;;;31.48;;
53267;SDS011;39156;51.176;6.738;2022-10-31T11:42:18;34.45;;;32.15;;
53267;SDS011;39156;51.176;6.738;2022-10-31T11:44:53;36.45;;;33.63;;
53267;SDS011;39156;51.176;6.738;2022-10-31T11:47:25;34.92;;;32.33;;
53267;SDS011;39156;51.176;6.738;2022-10-31T11:49:53;34.40;;;31.98;;
53267;SDS011;39156;51.176;6.738;2022-10-31T11:52:39;34.10;;;31.38;;
53267;SDS011;39156;51.176;6.738;2022-10-31T11:57:43;34.60;;;31.92;;
53267;SDS011;39156;51.176;6.738;2022-10-31T12:05:46;33.05;;;30.85;;
53267;SDS011;39156;51.176;6.738;2022-10-31T12:08:25;32.95;;;30.70;;
53267;SDS011;39156;51.176;6.738;2022-10-31T12:10:59;35.42;;;32.80;;
53267;SDS011;39156;51.176;6.738;2022-10-31T12:14:05;33.67;;;31.10;;
53267;SDS011;39156;51.176;6.738;2022-10-31T12:16:49;32.08;;;30.08;;
53267;SDS011;39156;51.176;6.738;2022-10-31T12:22:45;35.08;;;32.63;;
53267;SDS011;39156;51.176;6.738;2022-10-31T12:45:21;34.45;;;31.85;;
53267;SDS011;39156;51.176;6.738;2022-10-31T12:51:12;33.88;;;31.33;;
53267;SDS011;39156;51.176;6.738;2022-10-31T12:54:45;33.55;;;30.92;;
53267;SDS011;39156;51.176;6.738;2022-10-31T12:57:11;34.00;;;31.27;;
53267;SDS011;39156;51.176;6.738;2022-10-31T13:00:12;33.30;;;30.95;;
53267;SDS011;39156;51.176;6.738;2022-10-31T13:05:27;34.63;;;32.05;;
53267;SDS011;39156;51.176;6.738;2022-10-31T13:08:11;34.10;;;31.90;;
53267;SDS011;39156;51.176;6.738;2022-10-31T13:13:21;33.20;;;30.60;;
53267;SDS011;39156;51.176;6.738;2022-10-31T13:16:00;32.30;;;29.90;;
53267;SDS011;39156;51.176;6.738;2022-10-31T13:18:53;33.70;;;30.80;;
53267;SDS011;39156;51.176;6.738;2022-10-31T13:21:28;32.03;;;29.83;;
53267;SDS011;39156;51.176;6.738;2022-10-31T13:27:26;32.58;;;30.23;;
53267;SDS011;39156;51.176;6.738;2022-10-31T13:30:04;32.58;;;30.45;;
53267;SDS011;39156;51.176;6.738;2022-10-31T13:32:53;32.53;;;30.23;;
53267;SDS011;39156;51.176;6.738;2022-10-31T13:35:41;33.30;;;30.77;;
53267;SDS011;39156;51.176;6.738;2022-10-31T13:46:55;32.85;;;30.63;;
53267;SDS011;39156;51.176;6.738;2022-10-31T13:54:39;32.63;;;30.42;;
53267;SDS011;39156;51.176;6.738;2022-10-31T13:57:19;34.92;;;32.33;;
53267;SDS011;39156;51.176;6.738;2022-10-31T14:00:12;35.45;;;32.97;;
53267;SDS011;39156;51.176;6.738;2022-10-31T14:02:47;34.40;;;31.88;;
53267;SDS011;39156;51.176;6.738;2022-10-31T14:05:25;35.75;;;32.90;;
53267;SDS011;39156;51.176;6.738;2022-10-31T14:07:57;33.83;;;31.52;;
53267;SDS011;39156;51.176;6.738;2022-10-31T14:10:34;35.05;;;32.75;;
53267;SDS011;39156;51.176;6.738;2022-10-31T14:13:22;32.67;;;30.48;;
53267;SDS011;39156;51.176;6.738;2022-10-31T14:16:18;34.28;;;31.42;;
53267;SDS011;39156;51.176;6.738;2022-10-31T14:18:50;34.85;;;32.28;;
53267;SDS011;39156;51.176;6.738;2022-10-31T14:23:50;32.50;;;30.30;;
53267;SDS011;39156;51.176;6.738;2022-10-31T14:26:31;34.28;;;31.92;;
53267;SDS011;39156;51.176;6.738;2022-10-31T14:34:51;34.60;;;32.10;;
53267;SDS011;39156;51.176;6.738;2022-10-31T14:37:40;32.53;;;30.13;;
53267;SDS011;39156;51.176;6.738;2022-10-31T14:43:45;32.30;;;29.80;;
53267;SDS011;39156;51.176;6.738;2022-10-31T14:49:56;31.52;;;29.52;;
53267;SDS011;39156;51.176;6.738;2022-10-31T14:52:34;32.90;;;30.65;;
53267;SDS011;39156;51.176;6.738;2022-10-31T14:55:03;32.60;;;30.40;;
53267;SDS011;39156;51.176;6.738;2022-10-31T14:57:35;31.95;;;29.95;;
53267;SDS011;39156;51.176;6.738;2022-10-31T15:00:04;34.53;;;31.90;;
53267;SDS011;39156;51.176;6.738;2022-10-31T15:02:40;33.05;;;30.17;;
53267;SDS011;39156;51.176;6.738;2022-10-31T15:05:33;31.40;;;29.50;;
53267;SDS011;39156;51.176;6.738;2022-10-31T15:08:12;32.42;;;29.90;;
53267;SDS011;39156;51.176;6.738;2022-10-31T15:10:51;32.75;;;30.42;;
53267;SDS011;39156;51.176;6.738;2022-10-31T15:13:18;33.47;;;31.27;;
53267;SDS011;39156;51.176;6.738;2022-10-31T15:15:52;36.25;;;33.92;;
53267;SDS011;39156;51.176;6.738;2022-10-31T15:18:21;33.88;;;31.30;;
53267;SDS011;39156;51.176;6.738;2022-10-31T15:20:51;32.30;;;30.13;;
53267;SDS011;39156;51.176;6.738;2022-10-31T15:23:23;32.67;;;30.38;;
53267;SDS011;39156;51.176;6.738;2022-10-31T15:25:57;32.85;;;30.48;;
53267;SDS011;39156;51.176;6.738;2022-10-31T15:28:25;34.13;;;31.80;;
53267;SDS011;39156;51.176;6.738;2022-10-31T15:30:52;35.25;;;32.75;;
53267;SDS011;39156;51.176;6.738;2022-10-31T15:33:24;34.28;;;31.60;;
53267;SDS011;39156;51.176;6.738;2022-10-31T15:35:58;34.63;;;32.17;;
53267;SDS011;39156;51.176;6.738;2022-10-31T15:38:27;33.35;;;31.15;;
53267;SDS011;39156;51.176;6.738;2022-10-31T15:43:44;33.75;;;31.30;;
53267;SDS011;39156;51.176;6.738;2022-10-31T15:46:10;34.38;;;32.05;;
53267;SDS011;39156;51.176;6.738;2022-10-31T15:48:36;33.00;;;30.30;;
53267;SDS011;39156;51.176;6.738;2022-10-31T15:53:35;34.67;;;32.05;;
53267;SDS011;39156;51.176;6.738;2022-10-31T15:56:19;32.67;;;30.40;;
53267;SDS011;39156;51.176;6.738;2022-10-31T15:58:53;32.65;;;30.55;;
53267;SDS011;39156;51.176;6.738;2022-10-31T16:01:22;33.90;;;31.40;;
53267;SDS011;39156;51.176;6.738;2022-10-31T16:04:36;35.20;;;32.88;;
53267;SDS011;39156;51.176;6.738;2022-10-31T16:06:56;34.33;;;31.88;;
53267;SDS011;39156;51.176;6.738;2022-10-31T16:09:48;34.42;;;31.88;;
53267;SDS011;39156;51.176;6.738;2022-10-31T16:12:14;34.55;;;31.83;;
53267;SDS011;39156;51.176;6.738;2022-10-31T16:14:41;34.40;;;31.98;;
53267;SDS011;39156;51.176;6.738;2022-10-31T16:17:10;33.85;;;31.55;;
53267;SDS011;39156;51.176;6.738;2022-10-31T16:19:44;33.22;;;30.70;;
53267;SDS011;39156;51.176;6.738;2022-10-31T16:22:27;33.47;;;30.80;;
53267;SDS011;39156;51.176;6.738;2022-10-31T16:27:35;32.95;;;30.55;;
53267;SDS011;39156;51.176;6.738;2022-10-31T16:30:03;33.35;;;30.92;;
53267;SDS011;39156;51.176;6.738;2022-10-31T16:39:02;34.75;;;32.22;;
53267;SDS011;39156;51.176;6.738;2022-10-31T16:41:28;34.13;;;31.75;;
53267;SDS011;39156;51.176;6.738;2022-10-31T16:47:25;34.17;;;31.77;;
53267;SDS011;39156;51.176;6.738;2022-10-31T16:49:51;33.10;;;30.67;;
53267;SDS011;39156;51.176;6.738;2022-10-31T16:52:17;32.57;;;30.17;;
53267;SDS011;39156;51.176;6.738;2022-10-31T16:54:43;32.97;;;30.60;;
53267;SDS011;39156;51.176;6.738;2022-10-31T16:57:12;34.78;;;32.28;;
53267;SDS011;39156;51.176;6.738;2022-10-31T16:59:41;32.90;;;30.58;;
53267;SDS011;39156;51.176;6.738;2022-10-31T17:02:10;33.60;;;30.92;;
53267;SDS011;39156;51.176;6.738;2022-10-31T17:04:40;33.97;;;31.17;;
53267;SDS011;39156;51.176;6.738;2022-10-31T17:07:06;33.40;;;30.80;;
53267;SDS011;39156;51.176;6.738;2022-10-31T17:09:32;33.37;;;30.90;;
53267;SDS011;39156;51.176;6.738;2022-10-31T17:11:57;34.53;;;32.20;;
53267;SDS011;39156;51.176;6.738;2022-10-31T17:14:24;35.50;;;33.08;;
53267;SDS011;39156;51.176;6.738;2022-10-31T17:16:50;33.15;;;31.05;;